sensor_id;sensor_type;location;lat;lon;timestamp;pressure;altitude;pressure_sealevel;temperature;humidity
64200;BME280;50516;52.272;5.136;2023-03-18T00:00:47;100746.59;;;12.87;76.24
64200;BME280;50516;52.272;5.136;2023-03-18T00:03:12;100752.63;;;12.89;75.98
64200;BME280;50516;52.272;5.136;2023-03-18T00:05:38;100746.59;;;12.87;76.39
64200;BME280;50516;52.272;5.136;2023-03-18T00:08:04;100747.97;;;12.85;76.27
64200;BME280;50516;52.272;5.136;2023-03-18T00:10:32;100754.63;;;12.78;76.41
64200;BME280;50516;52.272;5.136;2023-03-18T00:12:59;100756.41;;;12.69;76.76
64200;BME280;50516;52.272;5.136;2023-03-18T00:15:26;100753.59;;;12.74;76.87
64200;BME280;50516;52.272;5.136;2023-03-18T00:17:51;100748.56;;;12.82;77.13
64200;BME280;50516;52.272;5.136;2023-03-18T00:20:17;100754.88;;;12.82;76.87
64200;BME280;50516;52.272;5.136;2023-03-18T00:22:52;100762.66;;;12.75;76.80
64200;BME280;50516;52.272;5.136;2023-03-18T00:25:18;100761.34;;;12.67;77.12
64200;BME280;50516;52.272;5.136;2023-03-18T00:27:43;100769.03;;;12.70;77.32
64200;BME280;50516;52.272;5.136;2023-03-18T00:30:09;100762.13;;;12.73;77.29
64200;BME280;50516;52.272;5.136;2023-03-18T00:32:36;100773.94;;;12.78;76.80
64200;BME280;50516;52.272;5.136;2023-03-18T00:35:03;100768.13;;;12.80;76.76
64200;BME280;50516;52.272;5.136;2023-03-18T00:37:29;100770.03;;;12.85;76.44
64200;BME280;50516;52.272;5.136;2023-03-18T00:39:59;100774.47;;;12.81;76.35
64200;BME280;50516;52.272;5.136;2023-03-18T00:42:31;100777.53;;;12.79;76.69
64200;BME280;50516;52.272;5.136;2023-03-18T00:45:02;100782.75;;;12.75;76.55
64200;BME280;50516;52.272;5.136;2023-03-18T00:47:29;100777.31;;;12.70;76.83
64200;BME280;50516;52.272;5.136;2023-03-18T00:49:54;100769.38;;;12.64;76.67
64200;BME280;50516;52.272;5.136;2023-03-18T00:52:19;100777.41;;;12.60;76.95
64200;BME280;50516;52.272;5.136;2023-03-18T00:54:46;100774.41;;;12.56;77.54
64200;BME280;50516;52.272;5.136;2023-03-18T00:57:11;100774.13;;;12.53;77.53
64200;BME280;50516;52.272;5.136;2023-03-18T00:59:37;100777.16;;;12.51;77.33
64200;BME280;50516;52.272;5.136;2023-03-18T01:02:02;100783.00;;;12.45;77.54
64200;BME280;50516;52.272;5.136;2023-03-18T01:04:28;100783.84;;;12.40;77.71
64200;BME280;50516;52.272;5.136;2023-03-18T01:06:53;100773.75;;;12.30;78.42
64200;BME280;50516;52.272;5.136;2023-03-18T01:09:18;100774.53;;;12.36;78.55
64200;BME280;50516;52.272;5.136;2023-03-18T01:11:43;100785.81;;;12.39;78.45
64200;BME280;50516;52.272;5.136;2023-03-18T01:14:09;100777.50;;;12.45;78.58
64200;BME280;50516;52.272;5.136;2023-03-18T01:16:34;100779.63;;;12.53;78.32
64200;BME280;50516;52.272;5.136;2023-03-18T01:19:00;100776.03;;;12.57;78.53
64200;BME280;50516;52.272;5.136;2023-03-18T01:21:25;100777.97;;;12.57;77.76
64200;BME280;50516;52.272;5.136;2023-03-18T01:23:51;100771.38;;;12.58;78.63
64200;BME280;50516;52.272;5.136;2023-03-18T01:26:16;100769.94;;;12.60;78.18
64200;BME280;50516;52.272;5.136;2023-03-18T01:28:41;100780.41;;;12.64;78.17
64200;BME280;50516;52.272;5.136;2023-03-18T01:31:07;100769.38;;;12.64;77.84
64200;BME280;50516;52.272;5.136;2023-03-18T01:33:32;100767.16;;;12.66;78.08
64200;BME280;50516;52.272;5.136;2023-03-18T01:36:00;100775.13;;;12.67;78.17
64200;BME280;50516;52.272;5.136;2023-03-18T01:38:27;100772.66;;;12.66;78.13
64200;BME280;50516;52.272;5.136;2023-03-18T01:40:57;100772.13;;;12.64;78.04
64200;BME280;50516;52.272;5.136;2023-03-18T01:43:32;100763.88;;;12.64;78.03
64200;BME280;50516;52.272;5.136;2023-03-18T01:46:00;100774.34;;;12.62;77.94
64200;BME280;50516;52.272;5.136;2023-03-18T01:48:28;100770.00;;;12.55;78.48
64200;BME280;50516;52.272;5.136;2023-03-18T01:51:06;100768.56;;;12.63;78.41
64200;BME280;50516;52.272;5.136;2023-03-18T01:53:41;100768.28;;;12.65;78.77
64200;BME280;50516;52.272;5.136;2023-03-18T01:56:08;100778.72;;;12.63;77.63
64200;BME280;50516;52.272;5.136;2023-03-18T01:58:46;100774.66;;;12.60;78.27
64200;BME280;50516;52.272;5.136;2023-03-18T02:01:17;100768.28;;;12.65;79.07
64200;BME280;50516;52.272;5.136;2023-03-18T02:03:44;100771.28;;;12.68;78.98
64200;BME280;50516;52.272;5.136;2023-03-18T02:06:11;100767.09;;;12.71;79.27
64200;BME280;50516;52.272;5.136;2023-03-18T02:08:37;100772.31;;;12.72;78.46
64200;BME280;50516;52.272;5.136;2023-03-18T02:11:03;100770.41;;;12.73;78.79
64200;BME280;50516;52.272;5.136;2023-03-18T02:13:29;100777.59;;;12.69;78.47
64200;BME280;50516;52.272;5.136;2023-03-18T02:16:00;100768.75;;;12.72;79.06
64200;BME280;50516;52.272;5.136;2023-03-18T02:18:34;100777.59;;;12.69;78.97
64200;BME280;50516;52.272;5.136;2023-03-18T02:27:49;100783.16;;;12.64;79.76
64200;BME280;50516;52.272;5.136;2023-03-18T02:30:20;100787.56;;;12.65;79.68
64200;BME280;50516;52.272;5.136;2023-03-18T02:32:49;100795.53;;;12.61;79.45
64200;BME280;50516;52.272;5.136;2023-03-18T02:35:16;100802.47;;;12.58;79.25
64200;BME280;50516;52.272;5.136;2023-03-18T02:37:41;100795.03;;;12.59;79.69
64200;BME280;50516;52.272;5.136;2023-03-18T02:40:28;100796.09;;;12.63;79.80
64200;BME280;50516;52.272;5.136;2023-03-18T02:42:54;100791.41;;;12.64;79.28
64200;BME280;50516;52.272;5.136;2023-03-18T02:45:37;100795.84;;;12.59;79.95
64200;BME280;50516;52.272;5.136;2023-03-18T02:48:05;100788.66;;;12.64;80.08
64200;BME280;50516;52.272;5.136;2023-03-18T02:50:32;100794.44;;;12.62;79.75
64200;BME280;50516;52.272;5.136;2023-03-18T02:53:00;100798.03;;;12.63;79.76
64200;BME280;50516;52.272;5.136;2023-03-18T02:55:26;100801.56;;;12.68;79.37
64200;BME280;50516;52.272;5.136;2023-03-18T02:57:51;100806.56;;;12.66;79.86
64200;BME280;50516;52.272;5.136;2023-03-18T03:00:17;100803.50;;;12.68;79.85
64200;BME280;50516;52.272;5.136;2023-03-18T03:02:42;100801.84;;;12.67;80.78
64200;BME280;50516;52.272;5.136;2023-03-18T03:05:09;100799.06;;;12.72;80.36
64200;BME280;50516;52.272;5.136;2023-03-18T03:07:35;100796.25;;;12.77;80.28
64200;BME280;50516;52.272;5.136;2023-03-18T03:10:00;100794.88;;;12.79;80.14
64200;BME280;50516;52.272;5.136;2023-03-18T03:12:25;100805.38;;;12.72;80.05
64200;BME280;50516;52.272;5.136;2023-03-18T03:14:51;100796.31;;;12.72;80.41
64200;BME280;50516;52.272;5.136;2023-03-18T03:17:16;100805.66;;;12.76;80.67
64200;BME280;50516;52.272;5.136;2023-03-18T03:19:41;100803.19;;;12.74;80.52
64200;BME280;50516;52.272;5.136;2023-03-18T03:22:07;100809.84;;;12.68;80.34
64200;BME280;50516;52.272;5.136;2023-03-18T03:24:33;100805.72;;;12.66;80.71
64200;BME280;50516;52.272;5.136;2023-03-18T03:26:58;100798.00;;;12.68;81.05
64200;BME280;50516;52.272;5.136;2023-03-18T03:29:23;100802.66;;;12.67;80.89
64200;BME280;50516;52.272;5.136;2023-03-18T03:31:49;100809.03;;;12.68;80.53
64200;BME280;50516;52.272;5.136;2023-03-18T03:34:14;100815.91;;;12.65;81.09
64200;BME280;50516;52.272;5.136;2023-03-18T03:36:39;100818.63;;;12.70;80.82
64200;BME280;50516;52.272;5.136;2023-03-18T03:39:05;100815.06;;;12.70;80.81
64200;BME280;50516;52.272;5.136;2023-03-18T03:41:30;100818.94;;;12.64;80.90
64200;BME280;50516;52.272;5.136;2023-03-18T03:43:55;100824.47;;;12.64;81.09
64200;BME280;50516;52.272;5.136;2023-03-18T03:46:21;100823.66;;;12.63;81.37
64200;BME280;50516;52.272;5.136;2023-03-18T03:48:47;100820.63;;;12.65;81.21
64200;BME280;50516;52.272;5.136;2023-03-18T03:51:13;100819.75;;;12.69;81.20
64200;BME280;50516;52.272;5.136;2023-03-18T03:53:39;100822.78;;;12.68;81.05
64200;BME280;50516;52.272;5.136;2023-03-18T03:56:05;100823.94;;;12.62;81.26
64200;BME280;50516;52.272;5.136;2023-03-18T03:58:32;100827.91;;;12.45;82.17
64200;BME280;50516;52.272;5.136;2023-03-18T04:00:57;100819.59;;;12.50;82.08
64200;BME280;50516;52.272;5.136;2023-03-18T04:03:24;100825.69;;;12.47;82.37
64200;BME280;50516;52.272;5.136;2023-03-18T04:05:49;100820.75;;;12.44;82.48
64200;BME280;50516;52.272;5.136;2023-03-18T04:08:15;100825.69;;;12.47;82.36
64200;BME280;50516;52.272;5.136;2023-03-18T04:10:40;100824.28;;;12.50;82.59
64200;BME280;50516;52.272;5.136;2023-03-18T04:13:07;100821.31;;;12.41;83.35
64200;BME280;50516;52.272;5.136;2023-03-18T04:15:33;100831.75;;;12.44;82.72
64200;BME280;50516;52.272;5.136;2023-03-18T04:17:58;100819.13;;;12.38;82.98
64200;BME280;50516;52.272;5.136;2023-03-18T04:20:28;100824.59;;;12.43;82.89
64200;BME280;50516;52.272;5.136;2023-03-18T04:22:54;100826.22;;;12.49;83.03
64200;BME280;50516;52.272;5.136;2023-03-18T04:25:19;100835.09;;;12.41;83.03
64200;BME280;50516;52.272;5.136;2023-03-18T04:27:45;100829.25;;;12.48;83.57
64200;BME280;50516;52.272;5.136;2023-03-18T04:30:11;100830.06;;;12.53;83.85
64200;BME280;50516;52.272;5.136;2023-03-18T04:32:36;100830.31;;;12.57;84.00
64200;BME280;50516;52.272;5.136;2023-03-18T04:35:02;100833.59;;;12.59;83.63
64200;BME280;50516;52.272;5.136;2023-03-18T04:37:27;100830.06;;;12.53;83.76
64200;BME280;50516;52.272;5.136;2023-03-18T04:39:53;100836.63;;;12.57;83.69
64200;BME280;50516;52.272;5.136;2023-03-18T04:42:18;100841.59;;;12.55;83.84
64200;BME280;50516;52.272;5.136;2023-03-18T04:44:44;100838.94;;;12.40;84.94
64200;BME280;50516;52.272;5.136;2023-03-18T04:47:10;100845.56;;;12.39;85.14
64200;BME280;50516;52.272;5.136;2023-03-18T04:49:35;100848.03;;;12.40;85.20
64200;BME280;50516;52.272;5.136;2023-03-18T04:52:02;100851.88;;;12.39;85.58
64200;BME280;50516;52.272;5.136;2023-03-18T04:54:28;100847.50;;;12.33;85.91
64200;BME280;50516;52.272;5.136;2023-03-18T04:56:53;100843.91;;;12.38;85.43
64200;BME280;50516;52.272;5.136;2023-03-18T04:59:19;100850.81;;;12.35;85.82
64200;BME280;50516;52.272;5.136;2023-03-18T05:01:44;100853.53;;;12.40;85.61
64200;BME280;50516;52.272;5.136;2023-03-18T05:04:10;100855.44;;;12.45;85.67
64200;BME280;50516;52.272;5.136;2023-03-18T05:06:35;100859.53;;;12.48;85.50
64200;BME280;50516;52.272;5.136;2023-03-18T05:09:02;100864.81;;;12.44;85.45
64200;BME280;50516;52.272;5.136;2023-03-18T05:11:29;100872.25;;;12.38;85.58
64200;BME280;50516;52.272;5.136;2023-03-18T05:13:54;100870.91;;;12.36;85.77
64200;BME280;50516;52.272;5.136;2023-03-18T05:16:20;100869.25;;;12.35;86.44
64200;BME280;50516;52.272;5.136;2023-03-18T05:18:45;100876.97;;;12.33;86.51
64200;BME280;50516;52.272;5.136;2023-03-18T05:21:11;100890.22;;;12.31;86.48
64200;BME280;50516;52.272;5.136;2023-03-18T05:23:36;100885.59;;;12.21;87.22
64200;BME280;50516;52.272;5.136;2023-03-18T05:26:03;100887.53;;;12.15;87.59
64200;BME280;50516;52.272;5.136;2023-03-18T05:28:30;100893.31;;;12.14;87.78
64200;BME280;50516;52.272;5.136;2023-03-18T05:30:57;100885.06;;;12.09;88.01
64200;BME280;50516;52.272;5.136;2023-03-18T05:33:22;100895.25;;;12.13;88.38
64200;BME280;50516;52.272;5.136;2023-03-18T05:35:48;100894.16;;;12.09;88.21
64200;BME280;50516;52.272;5.136;2023-03-18T05:38:13;100890.84;;;12.07;88.53
64200;BME280;50516;52.272;5.136;2023-03-18T05:40:39;100891.94;;;12.06;88.93
64200;BME280;50516;52.272;5.136;2023-03-18T05:43:04;100888.66;;;12.04;89.26
64200;BME280;50516;52.272;5.136;2023-03-18T05:45:30;100882.31;;;12.09;89.07
64200;BME280;50516;52.272;5.136;2023-03-18T05:47:56;100879.56;;;12.09;89.55
64200;BME280;50516;52.272;5.136;2023-03-18T05:50:32;100882.00;;;12.15;89.27
64200;BME280;50516;52.272;5.136;2023-03-18T05:52:58;100893.59;;;12.12;89.48
64200;BME280;50516;52.272;5.136;2023-03-18T05:55:25;100893.88;;;12.11;89.86
64200;BME280;50516;52.272;5.136;2023-03-18T05:57:52;100895.28;;;12.08;89.97
64200;BME280;50516;52.272;5.136;2023-03-18T06:00:18;100895.81;;;12.10;90.25
64200;BME280;50516;52.272;5.136;2023-03-18T06:02:44;100906.56;;;12.07;90.43
64200;BME280;50516;52.272;5.136;2023-03-18T06:05:10;100898.81;;;12.14;90.49
64200;BME280;50516;52.272;5.136;2023-03-18T06:07:36;100906.47;;;12.22;89.85
64200;BME280;50516;52.272;5.136;2023-03-18T06:10:02;100918.59;;;12.16;90.30
64200;BME280;50516;52.272;5.136;2023-03-18T06:12:27;100908.44;;;12.16;90.12
64200;BME280;50516;52.272;5.136;2023-03-18T06:14:53;100905.66;;;12.21;90.38
64200;BME280;50516;52.272;5.136;2023-03-18T06:17:19;100901.28;;;12.15;90.46
64200;BME280;50516;52.272;5.136;2023-03-18T06:19:45;100913.38;;;12.14;89.96
64200;BME280;50516;52.272;5.136;2023-03-18T06:22:11;100911.75;;;12.13;90.24
64200;BME280;50516;52.272;5.136;2023-03-18T06:24:36;100917.53;;;12.12;90.39
64200;BME280;50516;52.272;5.136;2023-03-18T06:27:02;100918.88;;;12.14;89.78
64200;BME280;50516;52.272;5.136;2023-03-18T06:29:27;100917.78;;;12.20;89.32
64200;BME280;50516;52.272;5.136;2023-03-18T06:31:53;100924.97;;;12.16;89.46
64200;BME280;50516;52.272;5.136;2023-03-18T06:34:19;100924.13;;;12.16;88.81
64200;BME280;50516;52.272;5.136;2023-03-18T06:36:44;100929.91;;;12.14;88.55
64200;BME280;50516;52.272;5.136;2023-03-18T06:39:10;100939.03;;;12.10;88.88
64200;BME280;50516;52.272;5.136;2023-03-18T06:41:36;100949.19;;;12.09;88.80
64200;BME280;50516;52.272;5.136;2023-03-18T06:44:02;100941.72;;;12.25;88.41
64200;BME280;50516;52.272;5.136;2023-03-18T06:46:29;100941.97;;;12.29;88.07
64200;BME280;50516;52.272;5.136;2023-03-18T06:48:54;100941.97;;;12.34;88.09
64200;BME280;50516;52.272;5.136;2023-03-18T06:51:20;100940.59;;;12.31;88.00
64200;BME280;50516;52.272;5.136;2023-03-18T06:53:45;100942.50;;;12.36;87.71
64200;BME280;50516;52.272;5.136;2023-03-18T06:56:11;100953.75;;;12.45;87.82
64200;BME280;50516;52.272;5.136;2023-03-18T06:58:40;100953.44;;;12.51;87.33
64200;BME280;50516;52.272;5.136;2023-03-18T07:01:05;100960.53;;;12.63;87.43
64200;BME280;50516;52.272;5.136;2023-03-18T07:03:32;100961.53;;;12.87;86.32
64200;BME280;50516;52.272;5.136;2023-03-18T07:05:58;100964.81;;;12.89;85.74
64200;BME280;50516;52.272;5.136;2023-03-18T07:08:23;100969.53;;;12.78;85.66
64200;BME280;50516;52.272;5.136;2023-03-18T07:10:51;100972.88;;;12.75;86.33
64200;BME280;50516;52.272;5.136;2023-03-18T07:13:17;100981.09;;;12.86;85.79
64200;BME280;50516;52.272;5.136;2023-03-18T07:15:43;100977.94;;;13.03;85.93
64200;BME280;50516;52.272;5.136;2023-03-18T07:18:08;100968.78;;;13.12;85.31
64200;BME280;50516;52.272;5.136;2023-03-18T07:20:34;100973.06;;;13.29;84.95
64200;BME280;50516;52.272;5.136;2023-03-18T07:23:00;100972.53;;;13.27;84.89
64200;BME280;50516;52.272;5.136;2023-03-18T07:25:27;100988.78;;;13.28;84.50
64200;BME280;50516;52.272;5.136;2023-03-18T07:27:54;100983.25;;;13.39;84.91
64200;BME280;50516;52.272;5.136;2023-03-18T07:30:19;100983.22;;;13.44;84.38
64200;BME280;50516;52.272;5.136;2023-03-18T07:32:45;100990.63;;;13.43;84.09
64200;BME280;50516;52.272;5.136;2023-03-18T07:35:11;100992.53;;;13.48;84.01
64200;BME280;50516;52.272;5.136;2023-03-18T07:37:39;100994.16;;;13.54;84.81
64200;BME280;50516;52.272;5.136;2023-03-18T07:40:05;100986.44;;;13.51;84.80
64200;BME280;50516;52.272;5.136;2023-03-18T07:42:30;100995.13;;;13.29;85.48
64200;BME280;50516;52.272;5.136;2023-03-18T07:44:56;100991.84;;;13.27;85.92
64200;BME280;50516;52.272;5.136;2023-03-18T07:47:22;101006.72;;;13.36;85.58
64200;BME280;50516;52.272;5.136;2023-03-18T07:49:49;101011.66;;;13.29;86.24
64200;BME280;50516;52.272;5.136;2023-03-18T07:52:16;101010.13;;;13.12;87.77
64200;BME280;50516;52.272;5.136;2023-03-18T07:54:42;101010.09;;;13.23;87.45
64200;BME280;50516;52.272;5.136;2023-03-18T07:57:07;101006.84;;;13.55;86.00
64200;BME280;50516;52.272;5.136;2023-03-18T07:59:34;101014.41;;;13.74;85.92
64200;BME280;50516;52.272;5.136;2023-03-18T08:02:00;101017.91;;;13.84;85.65
64200;BME280;50516;52.272;5.136;2023-03-18T08:04:26;101009.72;;;14.03;85.17
64200;BME280;50516;52.272;5.136;2023-03-18T08:06:52;101006.66;;;14.05;84.62
64200;BME280;50516;52.272;5.136;2023-03-18T08:09:19;101006.91;;;13.79;85.49
64200;BME280;50516;52.272;5.136;2023-03-18T08:11:44;101003.47;;;13.93;85.38
64200;BME280;50516;52.272;5.136;2023-03-18T08:14:10;101003.28;;;14.13;84.51
64200;BME280;50516;52.272;5.136;2023-03-18T08:16:35;100990.78;;;14.16;84.64
64200;BME280;50516;52.272;5.136;2023-03-18T08:19:00;101000.72;;;14.17;84.04
64200;BME280;50516;52.272;5.136;2023-03-18T08:21:26;100998.56;;;14.14;84.45
64200;BME280;50516;52.272;5.136;2023-03-18T08:23:51;100997.97;;;14.17;84.16
64200;BME280;50516;52.272;5.136;2023-03-18T08:26:16;100993.97;;;14.28;83.89
64200;BME280;50516;52.272;5.136;2023-03-18T08:28:42;100997.50;;;14.34;83.05
64200;BME280;50516;52.272;5.136;2023-03-18T08:31:07;100991.75;;;14.30;83.57
64200;BME280;50516;52.272;5.136;2023-03-18T08:33:33;101000.50;;;14.13;84.34
64200;BME280;50516;52.272;5.136;2023-03-18T08:35:59;100999.50;;;14.28;84.02
64200;BME280;50516;52.272;5.136;2023-03-18T08:38:24;100999.13;;;14.59;82.75
64200;BME280;50516;52.272;5.136;2023-03-18T08:40:50;100998.22;;;14.69;82.32
64200;BME280;50516;52.272;5.136;2023-03-18T08:43:15;101004.66;;;14.83;81.51
64200;BME280;50516;52.272;5.136;2023-03-18T08:45:41;101001.13;;;14.77;81.49
64200;BME280;50516;52.272;5.136;2023-03-18T08:48:07;101000.53;;;14.81;81.44
64200;BME280;50516;52.272;5.136;2023-03-18T08:50:34;100998.69;;;14.76;81.31
64200;BME280;50516;52.272;5.136;2023-03-18T08:53:02;101001.59;;;14.85;81.07
64200;BME280;50516;52.272;5.136;2023-03-18T08:55:33;100995.41;;;14.93;80.77
64200;BME280;50516;52.272;5.136;2023-03-18T08:57:59;100998.59;;;15.00;80.32
64200;BME280;50516;52.272;5.136;2023-03-18T09:00:25;100994.72;;;15.01;80.06
64200;BME280;50516;52.272;5.136;2023-03-18T09:02:51;101000.56;;;15.00;79.99
64200;BME280;50516;52.272;5.136;2023-03-18T09:05:17;100993.84;;;15.06;79.64
64200;BME280;50516;52.272;5.136;2023-03-18T09:07:42;101003.13;;;15.15;79.32
64200;BME280;50516;52.272;5.136;2023-03-18T09:10:10;101011.03;;;15.22;78.86
64200;BME280;50516;52.272;5.136;2023-03-18T09:12:37;101005.34;;;15.32;78.30
64200;BME280;50516;52.272;5.136;2023-03-18T09:15:02;101004.53;;;15.31;78.10
64200;BME280;50516;52.272;5.136;2023-03-18T09:17:29;101003.91;;;15.34;77.68
64200;BME280;50516;52.272;5.136;2023-03-18T09:19:55;101010.34;;;15.30;77.33
64200;BME280;50516;52.272;5.136;2023-03-18T09:22:21;101018.88;;;15.14;78.33
64200;BME280;50516;52.272;5.136;2023-03-18T09:24:48;101013.28;;;15.20;78.35
64200;BME280;50516;52.272;5.136;2023-03-18T09:27:13;101006.78;;;15.29;77.94
64200;BME280;50516;52.272;5.136;2023-03-18T09:29:38;101007.50;;;15.35;77.32
64200;BME280;50516;52.272;5.136;2023-03-18T09:32:03;101010.47;;;15.39;77.33
64200;BME280;50516;52.272;5.136;2023-03-18T09:34:30;101009.47;;;15.34;77.72
64200;BME280;50516;52.272;5.136;2023-03-18T09:36:55;101023.38;;;15.29;77.68
64200;BME280;50516;52.272;5.136;2023-03-18T09:39:22;101023.59;;;15.14;78.36
64200;BME280;50516;52.272;5.136;2023-03-18T09:44:53;101015.94;;;14.87;79.69
64200;BME280;50516;52.272;5.136;2023-03-18T09:55:42;101037.13;;;14.72;80.66
64200;BME280;50516;52.272;5.136;2023-03-18T09:58:30;101048.72;;;14.74;81.09
64200;BME280;50516;52.272;5.136;2023-03-18T10:01:01;101048.13;;;14.77;80.71
64200;BME280;50516;52.272;5.136;2023-03-18T10:03:33;101050.25;;;14.86;80.30
64200;BME280;50516;52.272;5.136;2023-03-18T10:06:05;101047.06;;;15.17;79.52
64200;BME280;50516;52.272;5.136;2023-03-18T10:08:54;101049.28;;;15.33;79.14
64200;BME280;50516;52.272;5.136;2023-03-18T10:11:25;101055.84;;;15.57;78.13
64200;BME280;50516;52.272;5.136;2023-03-18T10:14:09;101052.44;;;15.65;77.95
64200;BME280;50516;52.272;5.136;2023-03-18T10:16:54;101057.97;;;15.65;77.79
64200;BME280;50516;52.272;5.136;2023-03-18T10:19:22;101046.50;;;15.72;77.47
64200;BME280;50516;52.272;5.136;2023-03-18T10:36:11;101033.47;;;16.05;75.62
64200;BME280;50516;52.272;5.136;2023-03-18T10:38:46;101024.19;;;16.29;75.09
64200;BME280;50516;52.272;5.136;2023-03-18T10:41:36;101025.53;;;16.45;73.71
64200;BME280;50516;52.272;5.136;2023-03-18T10:44:28;101026.97;;;16.29;74.65
64200;BME280;50516;52.272;5.136;2023-03-18T10:47:08;101032.88;;;16.08;74.71
64200;BME280;50516;52.272;5.136;2023-03-18T10:49:40;101032.28;;;16.25;74.90
64200;BME280;50516;52.272;5.136;2023-03-18T10:52:24;101028.50;;;16.35;74.86
64200;BME280;50516;52.272;5.136;2023-03-18T10:54:52;101027.78;;;16.29;73.96
64200;BME280;50516;52.272;5.136;2023-03-18T10:57:20;101027.69;;;16.48;73.21
64200;BME280;50516;52.272;5.136;2023-03-18T10:59:46;101018.84;;;16.74;71.71
64200;BME280;50516;52.272;5.136;2023-03-18T11:02:19;101022.94;;;16.90;70.66
64200;BME280;50516;52.272;5.136;2023-03-18T11:04:49;101029.81;;;17.07;70.53
64200;BME280;50516;52.272;5.136;2023-03-18T11:07:23;101028.19;;;17.06;70.58
64200;BME280;50516;52.272;5.136;2023-03-18T11:09:50;101025.31;;;16.97;70.61
64200;BME280;50516;52.272;5.136;2023-03-18T11:12:26;101029.72;;;16.84;71.02
64200;BME280;50516;52.272;5.136;2023-03-18T11:14:53;101034.16;;;16.85;70.23
64200;BME280;50516;52.272;5.136;2023-03-18T11:17:28;101033.72;;;17.06;70.28
64200;BME280;50516;52.272;5.136;2023-03-18T11:20:02;101030.09;;;17.05;70.30
64200;BME280;50516;52.272;5.136;2023-03-18T11:22:43;101041.00;;;17.15;70.05
64200;BME280;50516;52.272;5.136;2023-03-18T11:27:41;101036.13;;;17.21;69.42
64200;BME280;50516;52.272;5.136;2023-03-18T11:30:20;101035.13;;;17.17;69.17
64200;BME280;50516;52.272;5.136;2023-03-18T11:33:20;101034.69;;;17.24;68.43
64200;BME280;50516;52.272;5.136;2023-03-18T11:35:56;101038.41;;;17.19;69.05
64200;BME280;50516;52.272;5.136;2023-03-18T11:38:27;101036.13;;;17.21;69.12
64200;BME280;50516;52.272;5.136;2023-03-18T11:43:31;101043.97;;;17.19;68.55
64200;BME280;50516;52.272;5.136;2023-03-18T11:45:58;101046.00;;;17.27;68.51
64200;BME280;50516;52.272;5.136;2023-03-18T11:48:33;101040.69;;;17.17;69.12
64200;BME280;50516;52.272;5.136;2023-03-18T11:53:55;101045.88;;;16.68;69.37
64200;BME280;50516;52.272;5.136;2023-03-18T11:56:33;101045.34;;;16.52;69.59
64200;BME280;50516;52.272;5.136;2023-03-18T12:07:35;101028.81;;;16.75;69.04
64200;BME280;50516;52.272;5.136;2023-03-18T12:13:05;101029.34;;;17.27;67.61
64200;BME280;50516;52.272;5.136;2023-03-18T12:15:49;101025.75;;;17.27;67.00
64200;BME280;50516;52.272;5.136;2023-03-18T12:18:38;101023.66;;;17.32;66.34
64200;BME280;50516;52.272;5.136;2023-03-18T12:26:59;101028.47;;;17.41;65.40
64200;BME280;50516;52.272;5.136;2023-03-18T12:30:06;101035.84;;;17.45;65.27
64200;BME280;50516;52.272;5.136;2023-03-18T12:32:41;101027.81;;;17.21;65.12
64200;BME280;50516;52.272;5.136;2023-03-18T12:35:36;101032.72;;;17.38;65.13
64200;BME280;50516;52.272;5.136;2023-03-18T12:38:31;101022.69;;;17.14;65.53
64200;BME280;50516;52.272;5.136;2023-03-18T12:41:52;101038.13;;;17.07;65.78
64200;BME280;50516;52.272;5.136;2023-03-18T12:49:24;101029.94;;;16.46;67.39
64200;BME280;50516;52.272;5.136;2023-03-18T12:52:07;101032.63;;;16.51;66.83
64200;BME280;50516;52.272;5.136;2023-03-18T12:54:47;101030.66;;;16.93;66.22
64200;BME280;50516;52.272;5.136;2023-03-18T12:57:26;101025.59;;;17.46;64.63
64200;BME280;50516;52.272;5.136;2023-03-18T13:00:00;101034.56;;;17.65;63.31
64200;BME280;50516;52.272;5.136;2023-03-18T13:05:31;101025.31;;;17.56;62.89
64200;BME280;50516;52.272;5.136;2023-03-18T13:10:46;101029.44;;;17.36;62.42
64200;BME280;50516;52.272;5.136;2023-03-18T13:13:14;101034.28;;;17.53;62.75
64200;BME280;50516;52.272;5.136;2023-03-18T13:15:45;101020.53;;;17.93;62.30
64200;BME280;50516;52.272;5.136;2023-03-18T13:18:24;101025.50;;;18.05;61.15
64200;BME280;50516;52.272;5.136;2023-03-18T13:20:55;101023.31;;;18.24;61.32
64200;BME280;50516;52.272;5.136;2023-03-18T13:26:35;101032.28;;;18.21;60.86
64200;BME280;50516;52.272;5.136;2023-03-18T13:42:45;101027.22;;;17.47;60.79
64200;BME280;50516;52.272;5.136;2023-03-18T13:45:37;101024.66;;;17.73;60.01
64200;BME280;50516;52.272;5.136;2023-03-18T13:48:11;101030.72;;;17.98;59.41
64200;BME280;50516;52.272;5.136;2023-03-18T13:50:39;101032.16;;;17.95;58.96
64200;BME280;50516;52.272;5.136;2023-03-18T13:53:21;101027.03;;;18.20;59.39
64200;BME280;50516;52.272;5.136;2023-03-18T13:55:59;101020.25;;;18.35;58.30
64200;BME280;50516;52.272;5.136;2023-03-18T13:58:33;101016.66;;;18.34;58.42
64200;BME280;50516;52.272;5.136;2023-03-18T14:08:42;101015.97;;;18.29;57.74
64200;BME280;50516;52.272;5.136;2023-03-18T14:13:39;101011.28;;;18.38;58.37
64200;BME280;50516;52.272;5.136;2023-03-18T14:16:09;101015.91;;;18.11;58.85
64200;BME280;50516;52.272;5.136;2023-03-18T14:18:38;101008.38;;;18.12;58.67
64200;BME280;50516;52.272;5.136;2023-03-18T14:21:05;101002.00;;;18.11;58.48
64200;BME280;50516;52.272;5.136;2023-03-18T14:24:00;100999.06;;;18.16;58.18
64200;BME280;50516;52.272;5.136;2023-03-18T14:26:27;100994.94;;;18.05;58.79
64200;BME280;50516;52.272;5.136;2023-03-18T14:39:21;100973.34;;;17.48;62.50
64200;BME280;50516;52.272;5.136;2023-03-18T14:41:52;100971.31;;;17.40;62.53
64200;BME280;50516;52.272;5.136;2023-03-18T14:47:24;100956.94;;;17.15;63.08